Time;durP1;ratioP1;P1;durP2;ratioP2;P2;SDS_P1;SDS_P2;PMS_P1;PMS_P2;Temp;Humidity;BMP_temperature;BMP_pressure;BME280_temperature;BME280_humidity;BME280_pressure;Samples;Min_cycle;Max_cycle;Signal;HPM_P1;HPM_P2
2021/06/01 00:03:30;;;;;;;20.60;10.97;;;;;;;14.73;59.39;101063.28;5147166;56;1142662;-81
2021/06/01 00:08:36;;;;;;;32.20;12.40;;;;;;;14.69;59.39;101064.52;5148085;56;1142628;-80
2021/06/01 00:13:43;;;;;;;37.53;15.53;;;;;;;14.63;59.43;101064.21;5147928;56;1142592;-77
2021/06/01 00:18:50;;;;;;;50.47;17.47;;;;;;;14.30;59.07;101061.23;5147913;56;1142756;-80
2021/06/01 00:23:56;;;;;;;32.53;13.03;;;;;;;14.14;59.62;101055.03;5147885;56;1142557;-78
2021/06/01 00:29:02;;;;;;;15.93;8.93;;;;;;;14.07;60.08;101057.35;5147920;56;1142618;-80
2021/06/01 00:34:08;;;;;;;12.90;6.70;;;;;;;14.05;60.19;101065.94;5148113;56;1140474;-80
2021/06/01 00:39:13;;;;;;;17.73;7.93;;;;;;;14.02;60.30;101058.24;5152345;56;1140599;-77
2021/06/01 00:44:19;;;;;;;10.17;4.97;;;;;;;13.94;60.27;101054.03;5152666;56;1140786;-83
2021/06/01 00:49:25;;;;;;;20.97;10.90;;;;;;;13.79;60.20;101059.77;5152663;56;1140728;-78
2021/06/01 00:54:34;;;;;;;18.90;7.90;;;;;;;13.22;60.53;101068.85;5152374;56;1142596;-77
2021/06/01 00:59:40;;;;;;;10.70;6.87;;;;;;;12.81;61.40;101053.52;5152721;56;1140803;-79
2021/06/01 01:04:47;;;;;;;11.38;6.15;;;;;;;12.76;62.41;101058.33;5152906;56;1140739;-80
2021/06/01 01:09:53;;;;;;;17.67;7.05;;;;;;;12.99;63.31;101065.31;5152781;56;1140903;-77
2021/06/01 01:15:04;;;;;;;13.47;6.93;;;;;;;13.20;63.54;101052.19;5158408;56;1140657;-80
2021/06/01 01:20:38;;;;;;;12.67;6.67;;;;;;;13.37;63.55;101053.02;5152472;56;1140994;-76
2021/06/01 01:25:51;;;;;;;10.93;6.28;;;;;;;13.44;63.29;101044.08;5152622;56;1140687;-78
2021/06/01 01:30:58;;;;;;;;;;;;;;;13.32;63.04;101048.06;5161897;55;1140609;-78
2021/06/01 01:36:08;;;;;;;12.27;6.53;;;;;;;13.35;63.52;101037.19;5164736;56;976263;-73
2021/06/01 01:41:19;;;;;;;11.47;5.97;;;;;;;13.37;63.46;101025.96;5116149;56;1139184;-80
2021/06/01 01:51:38;;;;;;;6.20;4.33;;;;;;;13.38;63.27;101026.32;5152399;56;1140968;-80
2021/06/01 01:56:50;;;;;;;13.93;4.65;;;;;;;13.28;63.11;101020.08;5150966;56;1138990;-74
2021/06/01 02:01:58;;;;;;;7.10;4.87;;;;;;;13.09;62.86;101023.81;5154297;56;1140908;-82
2021/06/01 02:07:04;;;;;;;8.03;5.07;;;;;;;13.12;63.68;101010.30;5162647;56;1139095;-76
2021/06/01 02:12:11;;;;;;;12.07;5.37;;;;;;;13.08;63.58;101000.88;5162891;56;1138887;-76
2021/06/01 02:17:17;;;;;;;9.80;5.17;;;;;;;13.00;63.91;100992.18;5162617;56;1141031;-77
2021/06/01 02:28:20;;;;;;;8.43;5.17;;;;;;;12.77;63.90;100984.38;5162946;56;1140452;-76
2021/06/01 02:33:31;;;;;;;9.30;4.87;;;;;;;12.65;64.31;100976.43;5162655;56;1138410;-80
2021/06/01 02:38:37;;;;;;;9.13;5.17;;;;;;;12.66;64.39;100973.30;5176690;56;1138424;-79
2021/06/01 02:43:43;;;;;;;11.18;5.42;;;;;;;12.59;64.36;100965.44;5176703;56;1138993;-81
2021/06/01 02:48:50;;;;;;;10.10;5.47;;;;;;;12.57;64.63;100963.38;5176389;56;1140707;-81
2021/06/01 02:53:57;;;;;;;10.13;6.07;;;;;;;12.62;64.55;100966.53;5176381;56;1140656;-75
2021/06/01 02:59:08;;;;;;;15.17;7.20;;;;;;;12.49;64.46;100964.48;5176223;56;1140791;-84
2021/06/01 03:04:14;;;;;;;18.95;5.60;;;;;;;12.27;64.94;100964.82;5176257;56;1140911;-80
2021/06/01 03:09:19;;;;;;;11.67;6.37;;;;;;;12.16;65.42;100970.59;5176104;56;1140787;-77
2021/06/01 03:14:25;;;;;;;8.10;5.20;;;;;;;12.13;65.75;100978.78;5176003;56;1140702;-79
2021/06/01 03:19:33;;;;;;;12.43;5.70;;;;;;;12.10;65.76;100984.31;5176364;56;1138606;-80
2021/06/01 03:24:39;;;;;;;11.93;6.07;;;;;;;11.82;65.89;100994.37;5176549;56;1141592;-77
2021/06/01 03:29:45;;;;;;;11.03;7.07;;;;;;;11.54;66.55;101001.33;5176433;56;1141246;-76
2021/06/01 03:34:51;;;;;;;10.78;6.35;;;;;;;11.30;66.93;100994.72;5176310;56;1141023;-75
2021/06/01 03:39:57;;;;;;;12.67;7.03;;;;;;;11.35;67.37;101000.50;5176298;56;1140967;-78
2021/06/01 03:45:04;;;;;;;9.77;6.13;;;;;;;11.50;67.73;101002.50;5176674;56;1141017;-80
2021/06/01 03:50:11;;;;;;;14.90;6.57;;;;;;;11.66;67.76;100997.77;5176818;56;1138855;-77
2021/06/01 03:55:18;;;;;;;12.70;6.37;;;;;;;11.87;67.88;101005.48;5176760;56;1141162;-80
2021/06/01 04:00:28;;;;;;;16.77;6.80;;;;;;;11.90;67.73;100999.10;5176893;56;1140920;-81
2021/06/01 04:05:35;;;;;;;13.30;6.40;;;;;;;11.87;67.81;101005.48;5176733;56;1141221;-81
2021/06/01 04:10:41;;;;;;;22.07;7.13;;;;;;;11.78;67.69;101002.66;5176598;56;1141244;-82
2021/06/01 04:15:47;;;;;;;12.78;7.20;;;;;;;11.80;67.93;100998.08;5176951;56;1141198;-79
2021/06/01 04:20:53;;;;;;;15.55;6.90;;;;;;;11.92;68.05;101007.28;5176838;56;1141218;-78
2021/06/01 04:25:58;;;;;;;11.47;6.27;;;;;;;11.93;67.81;101014.27;5176722;56;1141195;-76
2021/06/01 04:31:05;;;;;;;12.67;7.07;;;;;;;11.96;68.30;101019.83;5143821;56;1141213;-82
2021/06/01 04:36:11;;;;;;;13.67;6.60;;;;;;;11.99;68.77;101024.91;5153814;56;1140936;-78
2021/06/01 04:41:16;;;;;;;17.67;7.97;;;;;;;12.01;68.99;101043.34;5153466;56;1141172;-77
2021/06/01 04:46:22;;;;;;;13.93;6.87;;;;;;;12.03;69.26;101051.56;5153863;56;1141050;-76
2021/06/01 04:51:28;;;;;;;8.77;6.23;;;;;;;12.10;69.45;101055.42;5153803;56;1140915;-75
2021/06/01 04:56:35;;;;;;;11.30;5.30;;;;;;;12.22;69.69;101049.70;5153961;56;1138940;-76
2021/06/01 05:01:40;;;;;;;12.37;6.40;;;;;;;12.28;69.14;101059.34;5153861;56;1141048;-82
2021/06/01 05:06:46;;;;;;;10.03;5.50;;;;;;;12.33;69.25;101048.39;5153854;56;1140689;-81
2021/06/01 05:11:52;;;;;;;9.73;6.10;;;;;;;12.38;69.60;101052.84;5153701;56;1141022;-78
2021/06/01 05:16:58;;;;;;;10.27;5.93;;;;;;;12.50;69.97;101046.61;5153862;56;1139035;-76
2021/06/01 05:22:04;;;;;;;10.37;5.63;;;;;;;12.59;69.82;101041.06;5153698;56;1140478;-79
2021/06/01 05:27:10;;;;;;;16.30;5.60;;;;;;;12.67;69.91;101036.87;5153732;56;1140428;-80
2021/06/01 05:37:38;;;;;;;7.43;5.17;;;;;;;12.91;69.70;101030.09;5162315;56;1140902;-77
2021/06/01 05:42:44;;;;;;;8.85;5.45;;;;;;;13.01;69.59;101023.08;5163084;56;1138453;-78
2021/06/01 05:47:50;;;;;;;7.97;4.20;;;;;;;13.07;68.95;101015.12;5163278;56;1138987;-80
2021/06/01 05:52:56;;;;;;;7.43;4.60;;;;;;;13.16;68.80;100992.30;5162693;56;1138441;-83
2021/06/01 05:58:03;;;;;;;8.87;6.07;;;;;;;13.22;68.57;100981.20;5162884;56;1138418;-76
2021/06/01 06:03:09;;;;;;;9.13;4.97;;;;;;;13.17;68.02;100979.39;5162824;56;1138491;-78
2021/06/01 06:08:18;;;;;;;7.90;4.90;;;;;;;13.18;68.06;100965.98;5162820;56;1139060;-78
2021/06/01 06:13:24;;;;;;;9.37;5.50;;;;;;;13.18;67.81;100947.39;5162575;56;1138521;-76
2021/06/01 06:18:39;;;;;;;8.53;3.67;;;;;;;13.17;68.13;100937.73;5162748;56;1138600;-83
2021/06/01 06:23:45;;;;;;;11.80;3.15;;;;;;;13.16;69.36;100917.94;5127418;56;1138400;-81
2021/06/01 06:28:51;;;;;;;4.62;2.90;;;;;;;13.13;71.23;100896.94;5162469;56;1140905;-83
2021/06/01 06:33:58;;;;;;;9.18;3.02;;;;;;;13.01;72.79;100881.02;5162509;56;1138437;-79
2021/06/01 06:39:05;;;;;;;8.47;5.07;;;;;;;12.89;74.11;100867.43;5175569;56;1138441;-75
2021/06/01 06:44:12;;;;;;;8.10;4.43;;;;;;;12.84;73.88;100843.55;5176406;56;1138542;-77
2021/06/01 06:49:19;;;;;;;9.83;3.33;;;;;;;12.82;73.96;100831.75;5176582;56;1138728;-79
2021/06/01 06:54:25;;;;;;;9.10;3.83;;;;;;;12.84;74.71;100831.60;5176400;56;1138929;-79
2021/06/01 06:59:31;;;;;;;6.60;3.80;;;;;;;12.87;74.64;100839.31;5176564;56;1138809;-82
2021/06/01 07:04:36;;;;;;;4.20;3.23;;;;;;;12.96;74.84;100855.84;5144160;56;1138661;-81
2021/06/01 07:09:42;;;;;;;8.73;3.90;;;;;;;13.07;74.28;100862.91;5176460;56;1138817;-81
2021/06/01 07:14:58;;;;;;;4.50;4.10;;;;;;;13.14;73.78;100862.78;5176592;56;1138719;-76
2021/06/01 07:20:10;;;;;;;6.07;4.63;;;;;;;13.22;73.35;100863.84;5139839;56;1139064;-77
2021/06/01 07:25:17;;;;;;;9.03;4.33;;;;;;;13.27;73.37;100859.48;5129511;56;1138579;-74
2021/06/01 07:30:23;;;;;;;9.83;5.57;;;;;;;13.34;73.53;100868.13;5135418;56;1138535;-80
2021/06/01 07:35:30;;;;;;;12.67;4.97;;;;;;;13.42;73.52;100868.83;5124624;56;1138394;-79
2021/06/01 07:40:37;;;;;;;6.93;4.27;;;;;;;13.46;73.23;100864.92;5142970;56;1141046;-79
2021/06/01 07:45:43;;;;;;;8.20;4.07;;;;;;;13.51;73.56;100875.17;5119271;55;1138893;-83
2021/06/01 07:50:50;;;;;;;7.40;4.03;;;;;;;13.57;74.03;100889.29;5134130;55;1139022;-80
2021/06/01 07:55:56;;;;;;;6.97;4.57;;;;;;;13.60;74.09;100875.23;5170733;55;1138402;-80
2021/06/01 08:01:02;;;;;;;9.80;4.70;;;;;;;13.60;74.57;100887.67;5149725;55;1138659;-80
2021/06/01 08:06:09;;;;;;;9.47;4.90;;;;;;;13.67;74.66;100896.83;5145181;55;1138427;-78
2021/06/01 08:11:15;;;;;;;7.73;4.80;;;;;;;13.76;74.67;100869.45;5141155;55;1139052;-75
2021/06/01 08:16:21;;;;;;;10.50;5.20;;;;;;;13.82;75.11;100864.11;5142163;55;1138344;-76
2021/06/01 08:21:40;;;;;;;9.67;4.47;;;;;;;13.90;74.99;100857.66;5145258;55;1141032;-72
2021/06/01 08:26:35;;;;;;;8.40;4.93;;;;;;;13.99;74.77;100863.51;5145354;55;1138898;-77
2021/06/01 08:31:44;;;;;;;5.53;4.75;;;;;;;14.13;74.48;100856.98;5148339;55;1139317;-79
2021/06/01 08:36:50;;;;;;;9.23;4.85;;;;;;;14.28;74.25;100848.52;5090396;56;1138765;-79
2021/06/01 08:41:58;;;;;;;10.15;4.08;;;;;;;14.46;74.55;100850.08;5046409;56;1138738;-79
2021/06/01 08:47:04;;;;;;;10.27;4.30;;;;;;;14.60;74.39;100852.84;5034887;56;1141230;-81
2021/06/01 08:52:10;;;;;;;10.32;4.42;;;;;;;14.78;74.43;100854.70;5043983;56;1141011;-80
2021/06/01 08:57:16;;;;;;;10.53;5.13;;;;;;;14.94;74.71;100858.16;5040789;56;1141020;-79
2021/06/01 09:02:25;;;;;;;9.87;4.77;;;;;;;15.15;74.91;100866.00;5060106;56;1141158;-86
2021/06/01 09:07:41;;;;;;;10.10;5.00;;;;;;;15.32;74.90;100858.64;5086433;57;1138899;-78
2021/06/01 09:13:32;;;;;;;24.12;5.62;;;;;;;15.54;74.92;100863.33;5086779;57;1141389;-81
2021/06/01 09:24:00;;;;;;;8.87;5.10;;;;;;;15.91;74.52;100862.08;5016759;57;978813;-78
2021/06/01 09:29:06;;;;;;;6.70;5.40;;;;;;;16.14;74.57;100862.08;5003910;57;1136249;-81
2021/06/01 09:34:16;;;;;;;7.07;5.20;;;;;;;16.32;73.27;100863.48;5028385;57;1138440;-77
2021/06/01 09:39:26;;;;;;;8.47;4.13;;;;;;;16.48;72.97;100858.35;5016486;55;1138701;-73
2021/06/01 09:44:32;;;;;;;9.00;5.27;;;;;;;16.64;69.97;100855.06;5173516;55;1138522;-84
2021/06/01 09:49:38;;;;;;;8.10;4.23;;;;;;;16.76;71.43;100860.03;5165357;55;1138390;-76
2021/06/01 10:00:18;;;;;;;6.07;4.90;;;;;;;17.07;69.56;100851.66;5178519;55;1140691;-77
2021/06/01 10:05:33;;;;;;;7.20;5.37;;;;;;;17.20;69.53;100845.43;5159722;56;1138582;-76
2021/06/01 10:10:40;;;;;;;6.47;4.70;;;;;;;17.40;68.95;100840.27;5197955;56;1138381;-80
2021/06/01 10:15:47;;;;;;;10.07;7.37;;;;;;;17.49;67.93;100839.31;5211680;56;1138652;-83
2021/06/01 10:20:53;;;;;;;11.33;5.42;;;;;;;17.54;67.50;100839.70;5167804;56;1141202;-84
2021/06/01 10:26:00;;;;;;;11.00;5.12;;;;;;;17.61;66.55;100835.05;5201923;55;1141010;-75
2021/06/01 10:31:10;;;;;;;7.17;5.30;;;;;;;17.74;67.18;100831.48;5210254;56;1140979;-81
2021/06/01 10:42:32;;;;;;;10.57;5.57;;;;;;;17.97;66.75;100832.64;5207939;55;1138915;-82
2021/06/01 10:52:25;;;;;;;11.87;5.37;;;;;;;18.53;65.51;100822.66;5185045;55;1138867;-75
2021/06/01 10:57:57;;;;;;;14.03;6.10;;;;;;;18.61;63.51;100813.35;5184967;55;1140935;-79
2021/06/01 11:03:06;;;;;;;14.13;6.10;;;;;;;18.67;63.79;100809.16;5185207;55;1141222;-77
2021/06/01 11:08:15;;;;;;;9.40;6.33;;;;;;;18.73;63.56;100801.81;5184950;55;1140707;-77
2021/06/01 11:13:28;;;;;;;11.47;6.33;;;;;;;18.80;64.08;100799.30;5183578;55;1138558;-81
2021/06/01 11:18:40;;;;;;;10.10;7.60;;;;;;;18.83;63.33;100801.66;5170798;55;1140670;-79
2021/06/01 11:34:41;;;;;;;14.43;6.90;;;;;;;19.43;62.75;100792.77;5161117;55;976685;-75
2021/06/01 11:39:59;;;;;;;9.63;6.03;;;;;;;19.54;62.17;100788.45;5011169;57;1139014;-76
2021/06/01 11:45:04;;;;;;;8.60;6.20;;;;;;;19.72;61.65;100786.88;5012748;57;1138629;-76
2021/06/01 11:55:50;;;;;;;11.43;6.17;;;;;;;19.88;60.16;100778.78;5098437;56;1138612;-77
2021/06/01 12:12:05;;;;;;;11.85;6.47;;;;;;;20.07;61.75;100764.11;5098563;57;1141013;-83
2021/06/01 12:17:14;;;;;;;9.58;5.65;;;;;;;20.19;61.70;100760.53;5095968;57;1141256;-81
2021/06/01 12:22:15;;;;;;;12.45;6.70;;;;;;;20.24;61.48;100757.66;5098017;57;1138957;-77
2021/06/01 12:27:28;;;;;;;8.30;5.66;;;;;;;20.21;60.78;100756.66;5091804;57;1141116;-78
2021/06/01 12:32:33;;;;;;;8.53;7.15;;;;;;;20.23;60.36;100757.83;5060529;57;1139068;-74
2021/06/01 13:21:07;;;;;;;6.92;4.80;;;;;;;20.42;61.00;100754.74;5180362;55;1138431;-76
2021/06/01 13:48:15;;;;;;;11.63;7.12;;;;;;;20.36;61.91;100743.34;5197018;55;1141201;-80
2021/06/01 13:55:07;;;;;;;13.55;8.90;;;;;;;20.33;62.67;100745.01;5172096;55;1140894;-81
2021/06/01 13:58:33;;;;;;;12.82;6.65;;;;;;;20.36;63.53;100741.50;5154921;55;1141019;-80
2021/06/01 14:30:25;;;;;;;10.48;7.62;;;;;;;20.59;61.06;100720.03;5155376;56;1140675;-79
2021/06/01 15:50:57;;;;;;;10.53;7.35;;;;;;;19.27;62.18;100693.56;5118072;56;1138507;-83
2021/06/01 16:23:27;;;;;;;8.70;6.15;;;;;;;18.88;62.68;100710.88;5089360;57;1140538;-80
2021/06/01 17:05:59;;;;;;;22.00;11.67;;;;;;;18.52;63.67;100714.33;5224695;55;1140467;-80
2021/06/01 17:16:31;;;;;;;10.40;7.43;;;;;;;18.41;63.27;100714.66;5170211;55;1138666;-84
2021/06/01 17:37:32;;;;;;;8.93;7.28;;;;;;;18.12;63.99;100742.70;5161319;55;1140669;-78
2021/06/01 17:42:42;;;;;;;10.17;6.50;;;;;;;18.11;64.17;100754.41;5153648;55;1138552;-81
2021/06/01 17:48:10;;;;;;;9.03;7.35;;;;;;;18.09;64.55;100751.05;5152487;55;1140467;-79
2021/06/01 17:53:07;;;;;;;10.82;7.72;;;;;;;18.04;64.82;100752.03;5188878;55;1139197;-84
2021/06/01 17:58:14;;;;;;;10.63;7.80;;;;;;;17.99;65.18;100754.37;5192538;55;1141003;-81
2021/06/01 18:03:25;;;;;;;11.40;7.43;;;;;;;17.95;65.30;100754.34;5206573;55;1140926;-80
2021/06/01 18:08:42;;;;;;;13.00;7.50;;;;;;;17.96;65.34;100757.36;5239459;55;1140781;-81
2021/06/01 18:51:47;;;;;;;;;;;;;;;17.80;65.24;100790.73;5188339;55;1142731;-85
2021/06/01 19:24:03;;;;;;;15.40;7.33;;;;;;;17.44;65.30;100812.19;5211924;55;1138904;-85
2021/06/01 19:50:15;;;;;;;9.38;6.58;;;;;;;17.35;65.61;100839.03;5197019;55;1140987;-82
2021/06/01 19:55:22;;;;;;;11.97;7.83;;;;;;;17.27;65.70;100838.95;5240105;55;1138751;-79
2021/06/01 20:00:30;;;;;;;10.90;8.60;;;;;;;17.19;65.80;100844.59;5188188;55;1140767;-83
2021/06/01 20:05:38;;;;;;;11.97;9.97;;;;;;;17.21;66.36;100841.27;5167904;55;1141250;-78
2021/06/01 20:10:46;;;;;;;17.63;9.13;;;;;;;17.23;66.42;100842.45;5155876;55;1140625;-82
2021/06/01 20:15:52;;;;;;;18.53;12.67;;;;;;;17.23;66.47;100846.47;5147989;55;1140942;-84
2021/06/01 20:21:00;;;;;;;16.83;8.97;;;;;;;17.23;66.50;100847.80;5148771;56;1142646;-79
2021/06/01 20:26:09;;;;;;;11.10;8.38;;;;;;;17.19;66.30;100855.77;5149091;55;1141073;-83
2021/06/01 20:31:28;;;;;;;15.43;10.03;;;;;;;17.13;66.29;100859.05;5117076;55;1140632;-82
2021/06/01 20:36:26;;;;;;;15.70;9.23;;;;;;;17.08;66.41;100865.37;5150140;56;1143305;-84
2021/06/01 20:41:33;;;;;;;18.87;11.13;;;;;;;17.04;66.44;100875.52;5165125;55;1140677;-83
2021/06/01 20:46:39;;;;;;;15.10;8.37;;;;;;;17.02;66.73;100880.17;5189288;55;1143006;-82
2021/06/01 20:51:46;;;;;;;13.20;9.00;;;;;;;16.97;66.89;100878.44;5184091;55;1141034;-80
2021/06/01 20:56:56;;;;;;;18.37;9.63;;;;;;;16.91;67.02;100881.73;5184525;55;1140964;-83
2021/06/01 21:02:04;;;;;;;18.60;10.80;;;;;;;16.88;67.13;100884.70;5179635;55;1140610;-89
2021/06/01 21:07:10;;;;;;;15.20;9.10;;;;;;;16.80;67.16;100889.44;5181607;55;1143105;-78
2021/06/01 21:12:17;;;;;;;22.80;10.77;;;;;;;16.73;67.34;100883.03;5177679;55;1140904;-82
2021/06/01 21:17:27;;;;;;;18.07;10.47;;;;;;;16.70;67.43;100880.66;5182463;55;1142675;-79
2021/06/01 21:22:34;;;;;;;16.47;10.20;;;;;;;16.68;67.53;100881.79;5218536;55;1143160;-81
2021/06/01 21:27:40;;;;;;;19.07;10.27;;;;;;;16.65;67.72;100876.77;5240687;55;1143324;-82
2021/06/01 21:32:58;;;;;;;18.53;11.60;;;;;;;16.58;67.91;100880.48;5240612;55;1143082;-80
2021/06/01 21:38:07;;;;;;;24.07;13.30;;;;;;;16.50;68.05;100891.05;5240795;55;1143039;-81
2021/06/01 21:43:15;;;;;;;14.77;9.17;;;;;;;16.40;68.16;100895.12;5240664;55;1143090;-83
2021/06/01 21:48:22;;;;;;;17.27;10.20;;;;;;;16.34;68.29;100898.39;5226314;55;1141148;-82
2021/06/01 21:53:28;;;;;;;17.93;10.97;;;;;;;16.28;68.35;100898.97;5179341;55;1143022;-79
2021/06/01 21:58:40;;;;;;;16.80;10.43;;;;;;;16.24;68.68;100900.23;5218556;55;1143275;-82
2021/06/01 22:03:47;;;;;;;16.60;9.97;;;;;;;16.23;68.72;100893.70;5201987;55;1143310;-80
2021/06/01 22:08:54;;;;;;;16.63;10.90;;;;;;;16.18;68.78;100903.02;5239397;55;1140792;-84
2021/06/01 22:14:00;;;;;;;20.73;9.90;;;;;;;16.13;68.80;100909.77;5239382;55;1143161;-81
2021/06/01 22:19:10;;;;;;;14.28;10.32;;;;;;;16.09;68.64;100909.20;5239546;55;1141146;-85
2021/06/01 22:24:16;;;;;;;20.40;10.13;;;;;;;16.08;68.83;100913.35;5239286;55;1143228;-77
2021/06/01 22:29:24;;;;;;;13.23;9.83;;;;;;;16.08;69.18;100916.86;5239490;55;1143257;-83
2021/06/01 22:34:31;;;;;;;8.87;8.00;;;;;;;16.01;69.23;100913.11;5239540;55;1140981;-84
2021/06/01 22:39:36;;;;;;;14.25;8.05;;;;;;;15.91;69.54;100922.09;5177323;55;1139076;-78
2021/06/01 22:44:42;;;;;;;13.70;9.13;;;;;;;15.75;70.01;100918.19;5160681;55;1141201;-75
2021/06/01 22:49:52;;;;;;;19.73;10.57;;;;;;;15.66;70.24;100915.05;5151826;56;1141159;-81
2021/06/01 22:55:04;;;;;;;13.87;10.00;;;;;;;15.62;70.79;100912.80;5158371;56;1143543;-84
2021/06/01 23:00:13;;;;;;;18.85;10.48;;;;;;;15.53;70.93;100910.97;5142319;56;1143414;-82
2021/06/01 23:05:21;;;;;;;20.93;10.10;;;;;;;15.49;70.93;100924.57;5152852;56;1143233;-82
2021/06/01 23:10:27;;;;;;;16.50;10.37;;;;;;;15.48;71.15;100924.22;5152817;56;1143072;-77
2021/06/01 23:15:34;;;;;;;15.87;9.90;;;;;;;15.46;71.13;100928.84;5152650;56;1143188;-82
2021/06/01 23:20:40;;;;;;;13.43;9.67;;;;;;;15.36;71.15;100934.67;5171200;55;1141249;-80
2021/06/01 23:25:47;;;;;;;17.90;11.40;;;;;;;15.20;71.16;100942.37;5148316;56;1141027;-85
2021/06/01 23:30:53;;;;;;;17.50;10.70;;;;;;;15.16;71.55;100941.45;5148219;56;1143106;-82
2021/06/01 23:36:02;;;;;;;16.07;11.43;;;;;;;15.10;71.70;100947.70;5148413;56;1143295;-81
2021/06/01 23:41:08;;;;;;;19.60;11.35;;;;;;;15.08;71.97;100946.99;5148189;56;1143195;-75
